Millington, TN

8:55 AM CDT on April 26, 2015 (GMT -0500)
Lucy | | Change Station
CLOSE
Current Station
Personal Weather Station
Location: Millington, TN
Elevation: 276 ft
Nearby Weather Stations
Active Advisory: Flood Advisory

Elev 276 ft 35.31 °N, 89.93 °W | Updated 9 minutes ago

Overcast
Overcast
61.3 °F
Feels Like 61.3 °F
N
0.0
Wind Variable Wind from East
Gusts 1.6 mph

Today
High -- | Low -- °F
--% Chance of Precip.
Yesterday
High -- | Low -- °F
Precip. -- in
6:13 AM 7:41 PM
First Quarter, 56% visible
Pressure 29.77 in
Visibility 10.0 miles
Clouds Overcast 900 ft
Dew Point 61 °F
Humidity 99%
Rainfall 0.00 in
Snow Depth Not available.
UV 0 out of 12
Pollen 9.70 out of 12
Air Quality Not available.
Flu Activity Sporadic
METAR KNQA 261255Z 36006KT 10SM OVC009 16/15 A2977

More Conditions Fewer Conditions

Pressure 29.77 in
Visibility 10.0 miles
Clouds Overcast 900 ft
Dew Point 61 °F
Humidity 99%
Rainfall 0.00 in
Snow Depth Not available.
UV 0 out of 12
Pollen 9.70 out of 12
Air Quality Not available.
Flu Activity Sporadic
METAR KNQA 261255Z 36006KT 10SM OVC009 16/15 A2977

More Conditions Fewer Conditions

The full scope of the disaster following a powerful 7.8-magnitude earthquake in Nepal may not come into view for days, but global charities are already sending emergency aid. Click to see how you can help.

10-Day Weather Forecast

Almanac

Astronomy

Apr. 26, 2015 Rise Set
Actual Time
Civil Twilight
Nautical Twilight
Astronomical Twilight
Moon
Length of Visible Light
Length of Day
Tomorrow will be .
, % of the Moon is Illuminated

Today's Extremes

State Highs State Lows

Community

WunderPhotos

Upload Photos

1,816,998 photos uploaded!

WunderBlogs® & News

Nearby

Air Quality

  Air Quality AQ Index Pollutant
Not available.

Snow Depth

Station Depth Elevation

Earthquake Activity

City Distance Mag. Time & Date
Minimum magnitude displayed is 2.5.

Coastal Water Temperatures

Place Temperature

Stations

Nearby Weather Stations

Station Location Temp. Windchill Dew Point Humidity Wind Precip. Elev Updated Type
                   
Flood Advisory
Statement as of 9:14 PM CDT on April 25, 2015

The Flood Advisory continues for
the Mississippi River at Memphis
* until Tuesday April 28.
* At 09 PM Saturday the stage was 28.5 feet.
* Flood stage is 34.0 feet.
* Forecast... the river will rise to near 28.7 feet Sunday April 26.
* At 29.0 feet... in Arkansas. The evacuation Route from camps south
of Hopefield Chute is cut off. Water is lapping the levee near
sulcer Road west of South Lake. River is touching the levee at Blue
Lake.


Lat... Lon 3539 9025 3539 8995 3533 9005 3513 9004
      3491 9008 3491 9041